Time;durP1;ratioP1;P1;durP2;ratioP2;P2;SDS_P1;SDS_P2;PMS_P1;PMS_P2;Temp;Humidity;BMP_temperature;BMP_pressure;BME280_temperature;BME280_humidity;BME280_pressure;Samples;Min_cycle;Max_cycle;Signal;HPM_P1;HPM_P2
2023/11/16 00:02:05;;;;;;;5.38;1.90;;;;;;;9.18;49.28;101247.63;5070887;28;20071;-83
2023/11/16 00:04:34;;;;;;;4.85;2.13;;;;;;;9.16;49.54;101246.88;5064915;28;20053;-85
2023/11/16 00:07:06;;;;;;;6.68;1.80;;;;;;;9.16;49.15;101246.88;5049282;28;20455;-85
2023/11/16 00:09:35;;;;;;;4.65;1.70;;;;;;;9.13;49.46;101247.97;5072355;28;20037;-84
2023/11/16 00:12:03;;;;;;;5.78;1.67;;;;;;;9.15;49.45;101245.13;5065382;28;20045;-85
2023/11/16 00:14:33;;;;;;;5.18;1.88;;;;;;;9.16;49.56;101244.16;5072828;28;20040;-84
2023/11/16 00:17:01;;;;;;;5.68;2.00;;;;;;;9.12;49.21;101248.97;5048894;28;20102;-85
2023/11/16 00:19:29;;;;;;;5.00;1.90;;;;;;;9.12;49.28;101239.91;5052457;28;20567;-83
2023/11/16 00:21:57;;;;;;;4.07;1.80;;;;;;;9.13;49.21;101241.66;5052745;28;20045;-84
2023/11/16 00:24:26;;;;;;;4.18;1.85;;;;;;;9.14;49.42;101240.66;5053772;28;20064;-83
2023/11/16 00:26:56;;;;;;;4.97;1.60;;;;;;;9.10;48.88;101231.81;5068115;28;20041;-84
2023/11/16 00:29:24;;;;;;;5.32;2.22;;;;;;;9.12;49.28;101240.78;5050572;28;20059;-83
2023/11/16 00:31:54;;;;;;;2.92;1.70;;;;;;;9.14;49.11;101240.66;5074996;28;20049;-84
2023/11/16 00:34:23;;;;;;;5.90;1.90;;;;;;;9.12;49.14;101235.31;5049736;28;20044;-84
2023/11/16 00:36:50;;;;;;;6.00;2.17;;;;;;;9.13;49.21;101239.78;5049305;28;20103;-83
2023/11/16 00:39:19;;;;;;;6.63;2.00;;;;;;;9.13;49.05;101241.66;5047519;28;20048;-83
2023/11/16 00:41:48;;;;;;;4.75;1.90;;;;;;;9.14;49.27;101240.66;5074330;28;20108;-82
2023/11/16 00:44:19;;;;;;;4.85;1.73;;;;;;;9.13;49.36;101236.19;5047773;28;20052;-83
2023/11/16 00:46:48;;;;;;;6.25;1.83;;;;;;;9.13;48.82;101247.97;5061246;28;20087;-83
2023/11/16 00:49:18;;;;;;;3.72;1.80;;;;;;;9.13;49.45;101230.72;5061882;28;20053;-84
2023/11/16 00:51:46;;;;;;;4.60;1.58;;;;;;;9.13;49.14;101234.31;5068242;28;20037;-83
2023/11/16 00:54:14;;;;;;;6.43;1.70;;;;;;;9.13;49.38;101234.31;5062033;28;21638;-83
2023/11/16 00:56:44;;;;;;;5.03;2.00;;;;;;;9.12;49.17;101224.38;5046439;28;20110;-84
2023/11/16 00:59:12;;;;;;;4.95;1.60;;;;;;;9.13;49.41;101239.78;5063097;28;20060;-83
2023/11/16 01:01:40;;;;;;;4.80;1.70;;;;;;;9.10;49.16;101232.69;5062557;28;20083;-82
2023/11/16 01:04:11;;;;;;;4.75;1.73;;;;;;;9.14;49.20;101236.06;5066465;28;20049;-83
2023/11/16 01:06:42;;;;;;;5.53;1.70;;;;;;;9.13;48.89;101238.91;5050389;28;20093;-83
2023/11/16 01:09:10;;;;;;;6.13;1.92;;;;;;;9.13;49.26;101234.31;5051135;28;20510;-84
2023/11/16 01:11:39;;;;;;;5.32;1.80;;;;;;;9.12;49.31;101229.84;5068197;28;20049;-85
2023/11/16 01:14:08;;;;;;;4.38;1.73;;;;;;;9.11;48.76;101236.28;5052861;28;20049;-85
2023/11/16 01:16:40;;;;;;;7.13;2.10;;;;;;;9.13;49.10;101234.31;5077316;28;20045;-82
2023/11/16 01:19:09;;;;;;;5.20;1.90;;;;;;;9.11;49.48;101228.09;5080759;28;20041;-85
2023/11/16 01:21:41;;;;;;;4.88;1.95;;;;;;;9.13;48.96;101238.91;5076750;28;20413;-84
2023/11/16 01:24:11;;;;;;;7.72;1.88;;;;;;;9.12;49.24;101231.72;5053967;28;20045;-84
2023/11/16 01:26:40;;;;;;;5.95;1.95;;;;;;;9.12;49.15;101227.13;5067080;28;20045;-85
2023/11/16 01:29:09;;;;;;;4.97;2.08;;;;;;;9.14;48.83;101227.88;5053079;28;20635;-84
2023/11/16 01:31:39;;;;;;;4.40;1.60;;;;;;;9.12;49.30;101221.66;5052982;28;20061;-83
2023/11/16 01:34:10;;;;;;;4.22;1.58;;;;;;;9.13;49.31;101222.53;5050612;28;20044;-84
2023/11/16 01:36:38;;;;;;;5.25;1.60;;;;;;;9.14;49.23;101221.56;5051970;28;20607;-84
2023/11/16 01:39:06;;;;;;;6.05;1.88;;;;;;;9.15;49.10;101232.38;5050302;28;20500;-85
2023/11/16 01:41:36;;;;;;;4.38;2.35;;;;;;;9.16;48.74;101225.91;5073935;28;20052;-84
2023/11/16 01:44:04;;;;;;;4.70;1.77;;;;;;;9.14;49.09;101227.00;5051878;28;20136;-84
2023/11/16 01:46:33;;;;;;;6.40;1.65;;;;;;;9.15;48.86;101231.50;5068392;28;20041;-84
2023/11/16 01:49:04;;;;;;;5.97;1.92;;;;;;;9.13;49.15;101231.59;5051352;28;20068;-85
2023/11/16 01:51:32;;;;;;;4.78;1.45;;;;;;;9.14;49.16;101227.88;5050989;28;20045;-85
2023/11/16 01:54:05;;;;;;;3.55;1.80;;;;;;;9.15;49.33;101226.03;5068106;28;20270;-84
2023/11/16 01:56:36;;;;;;;6.72;1.60;;;;;;;9.14;49.42;101224.28;5066834;28;20071;-85
2023/11/16 01:59:06;;;;;;;4.18;1.60;;;;;;;9.13;49.26;101228.88;5064980;28;20048;-85
2023/11/16 02:01:35;;;;;;;5.35;1.67;;;;;;;9.13;48.95;101226.13;5049980;28;20060;-83
2023/11/16 02:04:04;;;;;;;6.07;2.03;;;;;;;9.13;49.13;101228.00;5066843;28;20121;-83
2023/11/16 02:06:39;;;;;;;4.30;1.58;;;;;;;9.15;48.89;101220.56;5047727;28;20052;-83
2023/11/16 02:09:09;;;;;;;4.65;2.08;;;;;;;9.13;49.04;101225.25;5067108;28;20654;-82
2023/11/16 02:11:39;;;;;;;5.30;1.70;;;;;;;9.14;48.85;101227.88;5065034;28;20065;-82
2023/11/16 02:14:10;;;;;;;4.10;1.73;;;;;;;9.12;48.89;101235.31;5066484;28;20091;-84
2023/11/16 02:16:38;;;;;;;4.00;1.60;;;;;;;9.12;48.92;101234.44;5064129;28;20071;-85
2023/11/16 02:19:22;;;;;;;4.63;2.00;;;;;;;9.15;48.81;101236.94;5048624;28;20051;-83
2023/11/16 02:21:53;;;;;;;4.28;1.60;;;;;;;9.12;49.08;101235.31;5062629;28;20060;-85
2023/11/16 02:24:22;;;;;;;6.35;1.80;;;;;;;9.13;49.21;101228.88;5047515;28;20052;-85
2023/11/16 02:26:51;;;;;;;5.22;2.38;;;;;;;9.12;49.19;101224.38;5071028;28;20041;-84
2023/11/16 02:29:19;;;;;;;5.93;1.90;;;;;;;9.10;49.26;101212.69;5073538;28;20124;-84
2023/11/16 02:31:48;;;;;;;6.40;2.17;;;;;;;9.11;49.10;101209.00;5060434;28;20571;-83
2023/11/16 02:34:16;;;;;;;5.50;1.88;;;;;;;9.12;48.89;101208.00;5071633;28;20041;-83
2023/11/16 02:36:44;;;;;;;4.18;1.75;;;;;;;9.10;48.78;101207.25;5059549;28;20103;-85
2023/11/16 02:39:15;;;;;;;4.85;1.50;;;;;;;9.08;48.96;101199.16;5068421;28;20108;-84
2023/11/16 02:41:47;;;;;;;5.55;1.60;;;;;;;9.09;49.17;101202.75;5073069;28;20048;-83
2023/11/16 02:44:18;;;;;;;5.87;2.00;;;;;;;9.07;49.19;101210.22;5051315;28;20064;-82
2023/11/16 02:46:47;;;;;;;6.20;2.03;;;;;;;9.08;49.17;101201.06;5070473;28;20091;-87
2023/11/16 02:49:15;;;;;;;5.40;1.95;;;;;;;9.09;49.42;101205.50;5047781;28;20053;-85
2023/11/16 02:51:43;;;;;;;8.65;2.28;;;;;;;9.07;49.10;101208.38;5064452;28;20052;-83
2023/11/16 02:54:11;;;;;;;5.35;1.80;;;;;;;9.07;48.84;101208.38;5065020;28;20059;-85
2023/11/16 02:56:39;;;;;;;4.63;1.90;;;;;;;9.07;49.13;101202.03;5095728;28;20049;-84
2023/11/16 02:59:09;;;;;;;5.05;1.90;;;;;;;9.07;49.08;101196.56;5063185;28;20052;-85
2023/11/16 03:01:37;;;;;;;5.43;1.73;;;;;;;9.06;49.25;101195.69;5067675;28;20048;-85
2023/11/16 03:04:06;;;;;;;4.47;1.60;;;;;;;9.05;48.94;101193.09;5052573;28;20169;-84
2023/11/16 03:06:35;;;;;;;4.07;1.67;;;;;;;9.04;49.29;101194.94;5071234;28;20141;-85
2023/11/16 03:09:04;;;;;;;5.60;2.00;;;;;;;9.05;49.09;101199.41;5055788;28;20041;-86
2023/11/16 03:11:33;;;;;;;7.53;1.73;;;;;;;9.06;49.46;101203.91;5076310;28;20245;-85
2023/11/16 03:14:02;;;;;;;5.30;2.00;;;;;;;9.06;49.43;101200.28;5076426;28;20077;-85
2023/11/16 03:16:39;;;;;;;4.47;1.77;;;;;;;9.07;49.39;101210.22;5078838;28;20140;-86
2023/11/16 03:19:09;;;;;;;5.15;1.80;;;;;;;9.04;49.28;101199.53;5059126;28;20524;-83
2023/11/16 03:21:37;;;;;;;7.28;1.75;;;;;;;9.04;49.24;101205.00;5056142;28;20068;-84
2023/11/16 03:24:06;;;;;;;4.72;1.55;;;;;;;9.06;49.58;101209.34;5067465;28;20041;-84
2023/11/16 03:26:34;;;;;;;5.07;1.63;;;;;;;9.03;49.36;101212.31;5049645;28;20045;-83
2023/11/16 03:29:02;;;;;;;5.45;1.85;;;;;;;9.05;49.45;101201.28;5066113;28;20668;-84
2023/11/16 03:31:35;;;;;;;5.63;2.25;;;;;;;9.04;49.49;101203.13;5054278;28;20049;-85
2023/11/16 03:34:04;;;;;;;3.50;1.50;;;;;;;9.05;49.55;101195.81;5059802;28;20072;-83
2023/11/16 03:36:32;;;;;;;4.18;1.52;;;;;;;9.04;49.18;101191.34;5053350;28;20041;-84
2023/11/16 03:39:00;;;;;;;3.95;1.73;;;;;;;9.04;49.80;101192.22;5051927;28;20061;-84
2023/11/16 03:41:29;;;;;;;6.00;1.75;;;;;;;9.04;49.80;101194.94;5066774;28;20052;-85
2023/11/16 03:46:55;;;;;;;4.57;1.77;;;;;;;9.07;49.34;101199.31;5044185;28;20049;-87
2023/11/16 03:49:24;;;;;;;4.00;1.70;;;;;;;9.06;49.54;101192.09;5062678;28;20041;-86
2023/11/16 03:51:53;;;;;;;4.43;1.70;;;;;;;9.04;49.37;101197.66;5046662;28;20060;-84
2023/11/16 03:54:23;;;;;;;4.35;1.70;;;;;;;9.07;49.85;101200.19;5065737;28;20049;-83
2023/11/16 03:56:53;;;;;;;5.18;1.67;;;;;;;9.08;49.27;101199.16;5070159;28;20061;-83
2023/11/16 03:59:21;;;;;;;3.90;1.45;;;;;;;9.07;49.47;101199.31;5052459;28;20049;-83
2023/11/16 04:01:49;;;;;;;6.63;1.80;;;;;;;9.07;49.75;101194.72;5051776;28;20060;-82
2023/11/16 04:04:20;;;;;;;4.68;1.60;;;;;;;9.08;49.55;101201.91;5052876;28;20048;-81
2023/11/16 04:06:48;;;;;;;4.95;1.80;;;;;;;9.07;49.77;101194.72;5068401;28;20060;-82
2023/11/16 04:09:17;;;;;;;4.35;1.67;;;;;;;9.07;49.56;101196.56;5068394;28;20044;-82
2023/11/16 04:11:46;;;;;;;6.05;1.75;;;;;;;9.07;49.87;101192.00;5068827;28;20041;-82
2023/11/16 04:14:15;;;;;;;4.53;1.63;;;;;;;9.08;49.55;101190.13;5069864;28;20083;-82
2023/11/16 04:16:52;;;;;;;5.57;2.33;;;;;;;9.05;50.06;101185.75;5051469;28;20048;-83
2023/11/16 04:19:25;;;;;;;5.93;1.88;;;;;;;9.08;50.24;101176.47;5053365;28;20060;-84
2023/11/16 04:21:54;;;;;;;5.13;2.13;;;;;;;9.07;49.74;101188.38;5053003;28;20060;-82
2023/11/16 04:24:22;;;;;;;5.22;1.90;;;;;;;9.08;49.55;101185.50;5070146;28;20033;-84
2023/11/16 04:26:51;;;;;;;5.90;1.80;;;;;;;9.08;49.42;101180.06;5072063;28;20076;-85
2023/11/16 04:29:19;;;;;;;6.07;2.00;;;;;;;9.10;49.76;101182.66;5061717;28;20072;-84
2023/11/16 04:31:51;;;;;;;6.25;2.85;;;;;;;9.10;49.59;101182.66;5071180;28;20104;-84
2023/11/16 04:34:19;;;;;;;6.82;1.90;;;;;;;9.09;49.72;101184.53;5071411;28;20071;-83
2023/11/16 04:36:49;;;;;;;6.85;1.73;;;;;;;9.11;49.26;101165.31;5054601;28;20056;-83
2023/11/16 04:39:17;;;;;;;5.72;1.67;;;;;;;9.09;49.69;101164.53;5053061;28;20037;-84
2023/11/16 04:41:46;;;;;;;5.50;1.90;;;;;;;9.08;49.83;101174.59;5069815;28;20045;-84
2023/11/16 04:44:14;;;;;;;5.88;1.85;;;;;;;9.09;49.46;101164.53;5070206;28;20103;-83
2023/11/16 04:46:46;;;;;;;5.45;2.13;;;;;;;9.10;49.61;101167.16;5053549;28;20094;-83
2023/11/16 04:49:14;;;;;;;4.20;1.60;;;;;;;9.06;49.17;101159.34;5052807;28;20455;-83
2023/11/16 04:51:43;;;;;;;5.18;1.95;;;;;;;9.06;49.49;101154.75;5070690;28;20037;-84
2023/11/16 04:54:13;;;;;;;6.03;1.85;;;;;;;9.08;49.40;101152.75;5069065;28;20036;-83
2023/11/16 04:56:41;;;;;;;4.15;1.45;;;;;;;9.06;49.58;101154.75;5053393;28;20136;-84
2023/11/16 04:59:10;;;;;;;4.65;1.77;;;;;;;9.08;49.29;101160.94;5069447;28;20090;-85
2023/11/16 05:01:38;;;;;;;3.17;1.63;;;;;;;9.07;49.52;101164.69;5053051;28;20041;-83
2023/11/16 05:04:09;;;;;;;5.32;2.17;;;;;;;9.05;49.70;101172.13;5055738;28;20044;-83
2023/11/16 05:06:41;;;;;;;6.18;1.85;;;;;;;9.06;49.33;101159.34;5048183;28;20100;-83
2023/11/16 05:09:10;;;;;;;5.43;1.90;;;;;;;9.00;49.53;101160.66;5060349;28;20075;-84
2023/11/16 05:11:40;;;;;;;6.28;1.88;;;;;;;9.05;49.29;101163.94;5054740;28;20041;-83
2023/11/16 05:14:08;;;;;;;4.90;1.92;;;;;;;9.01;49.51;101151.47;5071265;28;20049;-83
2023/11/16 05:16:36;;;;;;;6.20;1.67;;;;;;;9.04;49.54;101170.38;5049635;28;20044;-82
2023/11/16 05:19:04;;;;;;;6.28;1.85;;;;;;;9.03;49.71;101168.63;5051192;28;20095;-83
2023/11/16 05:21:32;;;;;;;4.63;1.90;;;;;;;9.04;49.41;101158.56;5045336;28;20098;-83
2023/11/16 05:24:00;;;;;;;7.38;1.95;;;;;;;9.03;49.70;101157.69;5048262;28;20041;-83
2023/11/16 05:26:28;;;;;;;7.30;1.80;;;;;;;9.04;49.55;101174.97;5048801;28;20128;-83
2023/11/16 05:28:57;;;;;;;4.18;1.50;;;;;;;9.04;49.89;101161.31;5050490;28;20041;-83
2023/11/16 05:31:25;;;;;;;2.80;1.45;;;;;;;9.02;50.26;101158.69;5066140;28;20092;-84
2023/11/16 05:33:53;;;;;;;4.45;1.70;;;;;;;9.05;49.71;101168.50;5068860;28;20041;-83
2023/11/16 05:36:21;;;;;;;3.95;1.60;;;;;;;9.05;50.22;101163.06;5055990;28;20053;-83
2023/11/16 05:38:49;;;;;;;4.13;1.60;;;;;;;9.04;50.31;101161.31;5054271;28;20053;-85
2023/11/16 05:41:20;;;;;;;4.55;1.58;;;;;;;9.04;50.05;101155.84;5067907;28;20485;-84
2023/11/16 05:43:49;;;;;;;3.33;1.50;;;;;;;9.03;49.97;101159.56;5059364;28;20037;-85
2023/11/16 05:46:19;;;;;;;6.60;2.15;;;;;;;9.07;50.18;101166.53;5065151;28;20044;-86
2023/11/16 05:48:48;;;;;;;5.65;1.73;;;;;;;9.03;49.79;101152.25;5053836;28;20041;-85
2023/11/16 05:51:16;;;;;;;5.65;1.58;;;;;;;9.02;50.19;101136.84;5054787;28;20250;-85
2023/11/16 05:53:45;;;;;;;4.10;1.55;;;;;;;9.05;50.03;101143.94;5043686;28;20049;-86
2023/11/16 05:56:13;;;;;;;4.38;1.70;;;;;;;9.05;50.07;101139.34;5044917;28;20486;-87
2023/11/16 05:58:42;;;;;;;6.68;1.80;;;;;;;9.03;50.28;101138.59;5050786;28;20132;-85
2023/11/16 06:01:12;;;;;;;5.10;1.95;;;;;;;9.06;49.69;101143.84;5049456;28;20041;-84
2023/11/16 06:03:43;;;;;;;7.47;2.25;;;;;;;9.05;49.95;101142.09;5045961;28;20056;-85
2023/11/16 06:06:11;;;;;;;6.50;1.90;;;;;;;9.04;50.12;101143.06;5055777;28;20037;-84
2023/11/16 06:08:39;;;;;;;3.75;1.60;;;;;;;9.05;49.68;101141.22;5057624;28;20075;-84
2023/11/16 06:11:08;;;;;;;5.28;1.75;;;;;;;9.04;49.86;101151.25;5063362;28;20045;-84
2023/11/16 06:13:37;;;;;;;5.85;1.75;;;;;;;9.04;49.73;101142.19;5071386;28;20098;-84
2023/11/16 06:16:06;;;;;;;3.90;1.50;;;;;;;9.05;50.10;101135.75;5052270;28;20048;-84
2023/11/16 06:18:34;;;;;;;5.35;1.73;;;;;;;9.04;50.00;101139.47;5051804;28;20047;-85
2023/11/16 06:21:04;;;;;;;5.78;1.70;;;;;;;9.04;49.70;101132.16;5065254;28;20664;-85
2023/11/16 06:23:32;;;;;;;3.55;1.50;;;;;;;9.03;49.72;101133.13;5051533;28;20110;-84
2023/11/16 06:26:00;;;;;;;5.13;1.60;;;;;;;9.02;50.34;101125.94;5068761;28;20094;-83
2023/11/16 06:28:28;;;;;;;4.28;1.50;;;;;;;9.04;50.42;101123.97;5071024;28;20048;-84
2023/11/16 06:30:56;;;;;;;5.47;1.80;;;;;;;9.06;50.52;101118.38;5066401;28;20065;-84
2023/11/16 06:33:24;;;;;;;4.63;1.60;;;;;;;9.04;50.08;101117.63;5050651;28;20033;-84
2023/11/16 06:35:52;;;;;;;5.10;1.90;;;;;;;9.06;50.40;101110.19;5067127;28;20051;-84
2023/11/16 06:38:21;;;;;;;6.97;1.70;;;;;;;9.06;50.53;101113.78;5052826;28;20048;-83
2023/11/16 06:40:56;;;;;;;4.47;1.67;;;;;;;9.07;50.48;101109.22;5051958;28;20570;-82
2023/11/16 06:43:28;;;;;;;4.88;1.60;;;;;;;9.07;50.91;101106.47;5063469;28;20082;-83
2023/11/16 06:45:58;;;;;;;4.80;1.60;;;;;;;9.05;50.49;101103.00;5053590;28;20098;-82
2023/11/16 06:48:26;;;;;;;4.70;1.70;;;;;;;9.06;50.53;101100.16;5052004;28;20053;-82
2023/11/16 06:50:56;;;;;;;4.45;1.92;;;;;;;9.07;50.39;101107.34;5054941;28;20540;-82
2023/11/16 06:53:26;;;;;;;6.10;1.98;;;;;;;9.09;50.33;101109.94;5052999;28;20112;-82
2023/11/16 06:55:54;;;;;;;4.25;1.65;;;;;;;9.07;50.81;101104.63;5047615;28;20042;-82
2023/11/16 06:58:22;;;;;;;6.05;2.10;;;;;;;9.09;50.69;101096.28;5057432;28;20045;-83
2023/11/16 07:00:51;;;;;;;4.30;2.10;;;;;;;9.09;50.45;101097.16;5054409;28;20045;-82
2023/11/16 07:03:19;;;;;;;4.68;1.48;;;;;;;9.08;50.84;101106.34;5054997;28;20038;-83
2023/11/16 07:05:48;;;;;;;5.82;1.52;;;;;;;9.07;50.31;101101.88;5057595;28;20037;-82
2023/11/16 07:08:16;;;;;;;3.42;1.50;;;;;;;9.12;50.59;101106.09;5053453;28;20052;-83
2023/11/16 07:10:45;;;;;;;4.20;1.60;;;;;;;9.13;50.74;101106.00;5073944;28;20067;-83
2023/11/16 07:13:15;;;;;;;5.13;1.70;;;;;;;9.08;50.40;101092.69;5074741;28;20037;-83
2023/11/16 07:15:45;;;;;;;4.60;1.90;;;;;;;9.13;50.63;101095.06;5051125;28;20032;-83
2023/11/16 07:18:13;;;;;;;5.30;1.70;;;;;;;9.12;50.57;101087.00;5069917;28;20048;-84
2023/11/16 07:20:44;;;;;;;5.57;1.60;;;;;;;9.12;50.55;101076.06;5076280;28;20159;-84
2023/11/16 07:23:12;;;;;;;3.85;1.75;;;;;;;9.10;50.46;101065.25;5047393;28;20124;-83
2023/11/16 07:25:40;;;;;;;5.88;2.47;;;;;;;9.12;50.65;101056.97;5044063;28;20216;-83
2023/11/16 07:28:10;;;;;;;5.10;1.85;;;;;;;9.11;50.83;101053.34;5050964;28;20049;-82
2023/11/16 07:30:38;;;;;;;4.47;1.80;;;;;;;9.12;50.88;101059.69;5049099;28;20044;-82
2023/11/16 07:33:07;;;;;;;3.85;1.83;;;;;;;9.12;50.41;101056.97;5051657;28;20036;-83
2023/11/16 07:35:35;;;;;;;4.60;1.73;;;;;;;9.13;50.85;101058.69;5046511;28;20094;-85
2023/11/16 07:38:07;;;;;;;5.88;1.90;;;;;;;9.13;50.81;101048.66;5054156;28;20044;-84
2023/11/16 07:40:35;;;;;;;5.20;2.13;;;;;;;9.08;50.85;101038.06;5057684;28;20037;-85
2023/11/16 07:43:03;;;;;;;5.72;1.90;;;;;;;9.13;50.70;101036.88;5058168;28;20048;-84
2023/11/16 07:45:33;;;;;;;4.30;1.67;;;;;;;9.13;50.53;101032.28;5066799;28;20060;-83
2023/11/16 07:48:04;;;;;;;5.53;2.20;;;;;;;9.10;50.58;101024.31;5064135;28;20080;-83
2023/11/16 07:50:32;;;;;;;5.25;1.90;;;;;;;9.08;50.44;101018.97;5066304;28;20053;-83
2023/11/16 07:53:00;;;;;;;4.57;2.00;;;;;;;9.09;50.58;101025.28;5042648;28;20045;-83
2023/11/16 07:55:30;;;;;;;5.00;2.08;;;;;;;9.08;50.93;101018.97;5067882;28;20055;-81
2023/11/16 07:57:58;;;;;;;4.50;2.00;;;;;;;9.07;50.68;101014.53;5065170;28;20385;-84
2023/11/16 08:00:30;;;;;;;4.32;2.15;;;;;;;9.06;50.78;101020.97;5049175;28;20060;-83
2023/11/16 08:05:48;;;;;;;5.20;1.92;;;;;;;9.02;51.00;101016.72;5042942;28;20061;-83
2023/11/16 08:08:18;;;;;;;6.45;2.10;;;;;;;9.02;50.69;101013.13;5047119;28;20033;-84
2023/11/16 08:10:49;;;;;;;4.32;2.03;;;;;;;9.02;51.02;101004.94;5043118;28;20033;-84
2023/11/16 08:13:19;;;;;;;4.63;1.80;;;;;;;9.03;51.00;101009.41;5071718;28;20037;-86
2023/11/16 08:15:52;;;;;;;5.40;1.92;;;;;;;9.03;51.13;101009.41;5047548;28;20095;-85
2023/11/16 08:18:24;;;;;;;6.40;1.92;;;;;;;9.03;50.87;101001.22;5049352;28;20119;-84
2023/11/16 08:20:53;;;;;;;4.70;1.70;;;;;;;9.06;51.34;101018.25;5050454;28;20072;-85
2023/11/16 08:23:22;;;;;;;5.25;2.00;;;;;;;9.05;50.82;101013.75;5059381;28;20064;-84
2023/11/16 08:25:51;;;;;;;7.47;2.78;;;;;;;9.06;51.20;101010.03;5053112;28;20538;-85
2023/11/16 08:28:20;;;;;;;5.55;2.10;;;;;;;9.08;51.26;101010.78;5065251;28;20125;-86
2023/11/16 08:30:53;;;;;;;4.15;2.10;;;;;;;9.09;51.19;101006.19;5073671;28;20065;-84
2023/11/16 08:33:22;;;;;;;6.65;2.13;;;;;;;9.09;51.02;101001.59;5054018;28;20467;-85
2023/11/16 08:35:50;;;;;;;5.60;2.30;;;;;;;9.10;51.08;101003.34;5051822;28;20053;-84
2023/11/16 08:38:18;;;;;;;3.75;1.95;;;;;;;9.10;50.55;101011.53;5069659;28;20037;-84
2023/11/16 08:40:46;;;;;;;5.38;2.58;;;;;;;9.11;50.84;101017.88;5059292;28;20036;-83
2023/11/16 08:43:15;;;;;;;5.85;2.13;;;;;;;9.11;50.52;101017.88;5068516;28;20400;-85
2023/11/16 08:45:45;;;;;;;4.40;2.00;;;;;;;9.10;50.83;101017.00;5052102;28;20033;-86
2023/11/16 08:48:16;;;;;;;5.95;2.15;;;;;;;9.10;51.07;101017.00;5051676;28;20528;-85
2023/11/16 08:50:50;;;;;;;3.58;1.85;;;;;;;9.12;50.90;101026.94;5063335;28;20040;-84
2023/11/16 08:53:21;;;;;;;5.22;2.15;;;;;;;9.07;51.20;101011.78;5065510;28;20080;-83
2023/11/16 08:55:49;;;;;;;2.90;1.80;;;;;;;9.12;51.16;101016.00;5061505;28;20075;-84
2023/11/16 08:58:18;;;;;;;4.82;2.03;;;;;;;9.12;50.82;101011.41;5061147;28;20044;-83
2023/11/16 09:00:48;;;;;;;5.10;2.15;;;;;;;9.13;51.12;100998.63;5049394;28;20056;-84
2023/11/16 09:03:19;;;;;;;4.68;1.90;;;;;;;9.17;51.00;101005.56;5068173;28;20051;-85
2023/11/16 09:05:51;;;;;;;4.53;1.65;;;;;;;9.17;51.07;100997.38;5052850;28;20094;-84
2023/11/16 09:08:19;;;;;;;4.03;1.80;;;;;;;9.14;51.04;100990.31;5053679;28;20505;-85
2023/11/16 09:10:49;;;;;;;4.78;1.65;;;;;;;9.18;51.10;100993.66;5052715;28;20052;-84
2023/11/16 09:13:17;;;;;;;4.15;1.73;;;;;;;9.17;51.04;100991.91;5051747;28;20397;-84
2023/11/16 09:15:46;;;;;;;5.45;1.90;;;;;;;9.19;51.07;100999.00;5069004;28;20432;-85
2023/11/16 09:18:15;;;;;;;4.55;1.90;;;;;;;9.19;50.92;100976.28;5055509;28;20417;-83
2023/11/16 09:20:46;;;;;;;5.57;2.25;;;;;;;9.19;50.89;100965.38;5052831;28;20041;-82
2023/11/16 09:23:16;;;;;;;4.28;1.70;;;;;;;9.19;50.60;100960.78;5061895;28;20092;-82
2023/11/16 09:25:45;;;;;;;5.03;1.65;;;;;;;9.20;50.81;100975.31;5075300;28;20068;-83
2023/11/16 09:28:13;;;;;;;4.20;1.73;;;;;;;9.20;50.76;100975.31;5070922;28;20394;-83
2023/11/16 09:30:43;;;;;;;4.13;1.80;;;;;;;9.20;50.97;100973.44;5054535;28;20049;-84
2023/11/16 09:33:12;;;;;;;5.03;1.90;;;;;;;9.20;50.31;100973.44;5067368;28;20159;-84
2023/11/16 09:35:41;;;;;;;4.18;2.13;;;;;;;9.21;50.90;100966.13;5050617;28;20133;-84
2023/11/16 09:38:10;;;;;;;5.15;1.80;;;;;;;9.20;50.29;100957.06;5053609;28;20045;-84
2023/11/16 09:40:41;;;;;;;6.82;2.72;;;;;;;9.23;50.09;100961.41;5042817;28;20052;-82
2023/11/16 09:43:20;;;;;;;4.73;2.30;;;;;;;9.18;50.57;100955.44;5050106;28;20087;-83
2023/11/16 09:45:50;;;;;;;4.57;2.30;;;;;;;9.20;50.57;100948.00;5070024;28;20690;-83
2023/11/16 09:48:20;;;;;;;7.65;2.08;;;;;;;9.20;50.66;100945.25;5053567;28;20515;-82
2023/11/16 09:50:53;;;;;;;5.07;1.83;;;;;;;9.21;50.54;100950.63;5055702;28;20051;-83
2023/11/16 09:53:26;;;;;;;4.65;2.05;;;;;;;9.19;50.89;100943.53;5070226;28;20136;-82
2023/11/16 09:55:59;;;;;;;6.87;2.67;;;;;;;9.20;50.75;100943.41;5054653;28;20073;-83
2023/11/16 09:58:28;;;;;;;5.43;1.98;;;;;;;9.20;50.52;100937.94;5055219;28;20295;-83
2023/11/16 10:00:58;;;;;;;4.15;1.80;;;;;;;9.21;50.42;100934.22;5071126;28;20044;-82
2023/11/16 10:03:30;;;;;;;5.72;1.83;;;;;;;9.25;50.18;100934.81;5054617;28;20041;-83
2023/11/16 10:05:59;;;;;;;;;;;;;;;8.98;50.33;100927.88;5071184;28;20132;-83
2023/11/16 10:08:28;;;;;;;4.82;1.80;;;;;;;9.21;50.42;100926.03;5054826;28;19920;-83
2023/11/16 10:11:01;;;;;;;5.75;2.13;;;;;;;9.24;49.79;100927.66;5067109;28;20049;-85
2023/11/16 10:13:30;;;;;;;5.38;2.10;;;;;;;9.21;49.70;100920.56;5054982;28;20041;-85
2023/11/16 10:16:02;;;;;;;5.57;1.85;;;;;;;9.26;49.80;100903.81;5054736;28;20048;-83
2023/11/16 10:18:30;;;;;;;;;;;;;;;8.98;50.35;100906.06;5053888;28;20041;-83
2023/11/16 10:20:58;;;;;;;5.63;1.77;;;;;;;9.20;49.97;100896.13;5070406;28;19951;-83
2023/11/16 10:23:29;;;;;;;4.68;2.05;;;;;;;9.24;50.04;100900.34;5063350;28;20060;-84
2023/11/16 10:25:59;;;;;;;4.40;1.80;;;;;;;9.26;50.02;100901.06;5059332;28;20045;-83
2023/11/16 10:28:28;;;;;;;4.53;2.10;;;;;;;9.26;49.97;100888.28;5053860;28;20094;-86
2023/11/16 10:30:57;;;;;;;5.97;2.33;;;;;;;9.27;49.71;100890.03;5070524;28;20041;-84
2023/11/16 10:33:28;;;;;;;4.60;2.20;;;;;;;9.30;50.15;100878.88;5070238;28;20037;-83
2023/11/16 10:35:59;;;;;;;5.43;2.28;;;;;;;9.28;50.31;100875.38;5068932;28;20069;-85
2023/11/16 10:38:29;;;;;;;5.05;2.20;;;;;;;9.28;50.04;100871.78;5072102;28;20501;-85
2023/11/16 10:40:58;;;;;;;4.82;2.25;;;;;;;9.30;50.09;100870.66;5072641;28;20060;-84
2023/11/16 10:43:28;;;;;;;5.45;2.20;;;;;;;9.33;49.89;100878.59;5047946;28;20062;-84
2023/11/16 10:46:00;;;;;;;4.18;2.22;;;;;;;9.34;49.80;100877.59;5074184;28;20053;-84
2023/11/16 10:48:29;;;;;;;5.60;2.47;;;;;;;9.33;50.00;100875.03;5056280;28;20048;-83
2023/11/16 10:51:01;;;;;;;6.75;2.28;;;;;;;9.36;49.41;100872.00;5073222;28;20041;-83
2023/11/16 10:53:33;;;;;;;6.13;2.60;;;;;;;9.35;49.56;100865.69;5063326;28;20064;-84
2023/11/16 10:56:07;;;;;;;7.43;2.70;;;;;;;9.35;49.66;100864.81;5072471;28;20104;-84
2023/11/16 10:58:41;;;;;;;8.23;3.10;;;;;;;9.36;49.50;100855.63;5075425;28;20047;-82
2023/11/16 11:01:17;;;;;;;6.93;2.70;;;;;;;9.35;49.21;100853.88;5067581;28;20032;-83
2023/11/16 11:03:46;;;;;;;6.65;2.30;;;;;;;9.33;49.36;100850.44;5054500;28;20065;-84
2023/11/16 11:06:19;;;;;;;4.50;2.22;;;;;;;9.34;49.52;100853.03;5070405;28;20095;-83
2023/11/16 11:08:53;;;;;;;5.95;2.45;;;;;;;9.31;49.38;100838.78;5055425;28;20049;-83
2023/11/16 11:11:35;;;;;;;5.78;3.22;;;;;;;9.31;48.98;100822.38;5025206;28;20113;-83
2023/11/16 11:14:10;;;;;;;5.40;2.42;;;;;;;9.32;49.52;100822.25;5070384;28;20531;-83
2023/11/16 11:16:40;;;;;;;5.38;2.60;;;;;;;9.31;49.21;100828.72;5053307;28;20037;-83
2023/11/16 11:19:09;;;;;;;6.80;3.00;;;;;;;9.31;49.24;100822.38;5070181;28;20041;-83
2023/11/16 11:21:49;;;;;;;7.03;2.40;;;;;;;9.34;49.01;100824.84;5052774;28;20033;-82
2023/11/16 11:24:17;;;;;;;6.35;2.17;;;;;;;9.30;49.42;100815.19;5048071;28;20158;-83
2023/11/16 11:26:48;;;;;;;5.45;2.40;;;;;;;9.31;49.13;100825.97;5053021;28;20033;-83
2023/11/16 11:29:20;;;;;;;5.78;2.47;;;;;;;9.30;49.07;100818.78;5053332;28;20080;-82
2023/11/16 11:31:59;;;;;;;7.22;2.60;;;;;;;9.32;48.95;100822.25;5067697;28;20037;-83
2023/11/16 11:34:30;;;;;;;6.57;2.38;;;;;;;9.28;49.24;100804.38;5052134;28;20049;-83
2023/11/16 11:36:58;;;;;;;5.60;2.65;;;;;;;9.31;49.44;100809.59;5068132;28;20509;-83
2023/11/16 11:39:35;;;;;;;5.75;2.80;;;;;;;9.34;48.19;100800.25;5065185;28;20056;-82
2023/11/16 11:42:09;;;;;;;6.00;2.40;;;;;;;9.31;48.77;100787.75;5050090;28;20049;-83
2023/11/16 11:44:37;;;;;;;7.22;2.30;;;;;;;9.30;48.99;100791.47;5055721;28;20091;-82
2023/11/16 11:47:06;;;;;;;5.72;2.28;;;;;;;9.31;48.79;100782.28;5050022;28;20128;-83
2023/11/16 11:49:35;;;;;;;4.93;2.05;;;;;;;9.30;48.57;100775.09;5051744;28;20044;-82
2023/11/16 11:52:04;;;;;;;4.85;2.15;;;;;;;9.30;48.55;100764.16;5058091;28;20543;-83